Time,TemperatureF,DewpointF,PressureIn,WindDirection,WindDirectionDegrees,WindSpeedMPH,WindSpeedGustMPH,Humidity,HourlyPrecipIn,Conditions,Clouds,dailyrainin,SolarRadiationWatts/m^2,SoftwareType,DateUTC
2013-01-16 00:02:00,70.0,63.0,-100.00,NW,321,0.0,4.0,79,0.06,,,0.36,0.000000,,2013-01-16 10:02:00,
2013-01-16 00:12:00,70.0,63.0,-100.00,NW,321,0.0,4.0,79,0.06,,,0.36,0.000000,,2013-01-16 10:12:00,
2013-01-16 00:22:00,70.0,63.0,-100.00,NW,321,0.0,4.0,79,0.06,,,0.36,0.000000,,2013-01-16 10:22:00,
2013-01-16 00:32:00,70.0,63.0,-100.00,NW,321,0.0,4.0,79,0.06,,,0.36,0.000000,,2013-01-16 10:32:00,
2013-01-16 00:42:00,70.0,63.0,-100.00,NW,321,0.0,4.0,79,0.06,,,0.36,0.000000,,2013-01-16 10:42:00,
2013-01-16 01:02:00,70.0,63.0,-100.00,SSE,163,2.0,3.0,79,0.00,,,0.35,0.000000,,2013-01-16 11:02:00,
2013-01-16 01:12:00,70.0,63.0,-100.00,SSE,163,2.0,3.0,79,0.00,,,0.35,0.000000,,2013-01-16 11:12:00,
2013-01-16 01:22:00,70.0,63.0,-100.00,SSE,163,2.0,3.0,79,0.00,,,0.35,0.000000,,2013-01-16 11:22:00,
2013-01-16 01:32:00,70.0,63.0,-100.00,SSE,163,2.0,3.0,79,0.00,,,0.35,0.000000,,2013-01-16 11:32:00,
2013-01-16 01:42:00,70.0,63.0,-100.00,SSE,163,2.0,3.0,79,0.00,,,0.35,0.000000,,2013-01-16 11:42:00,
2013-01-16 02:03:00,70.0,62.0,-100.00,North,355,3.0,5.0,76,0.00,,,0.35,0.000000,,2013-01-16 12:03:00,
2013-01-16 02:12:00,70.0,62.0,-100.00,North,355,3.0,5.0,76,0.00,,,0.35,0.000000,,2013-01-16 12:12:00,
2013-01-16 02:22:00,70.0,62.0,-100.00,North,355,3.0,5.0,76,0.00,,,0.35,0.000000,,2013-01-16 12:22:00,
2013-01-16 02:33:00,70.0,62.0,-100.00,North,355,3.0,5.0,76,0.00,,,0.35,0.000000,,2013-01-16 12:33:00,
2013-01-16 02:42:00,70.0,62.0,-100.00,North,355,3.0,5.0,76,0.00,,,0.35,0.000000,,2013-01-16 12:42:00,
2013-01-16 03:02:00,69.0,61.0,-100.00,NNW,343,3.0,5.0,76,0.00,,,0.35,0.000000,,2013-01-16 13:02:00,
2013-01-16 03:12:00,69.0,61.0,-100.00,NNW,343,3.0,5.0,76,0.00,,,0.35,0.000000,,2013-01-16 13:12:00,
2013-01-16 03:22:00,69.0,61.0,-100.00,NNW,343,3.0,5.0,76,0.00,,,0.35,0.000000,,2013-01-16 13:22:00,
2013-01-16 03:32:00,69.0,61.0,-100.00,NNW,343,3.0,5.0,76,0.00,,,0.35,0.000000,,2013-01-16 13:32:00,
2013-01-16 03:42:00,69.0,61.0,-100.00,NNW,343,3.0,5.0,76,0.00,,,0.35,0.000000,,2013-01-16 13:42:00,
2013-01-16 04:03:00,67.0,59.0,-100.00,North,350,0.0,4.0,76,0.00,,,0.35,0.000000,,2013-01-16 14:03:00,
2013-01-16 04:12:00,67.0,59.0,-100.00,North,350,0.0,4.0,76,0.00,,,0.35,0.000000,,2013-01-16 14:12:00,
2013-01-16 04:22:00,67.0,59.0,-100.00,North,350,0.0,4.0,76,0.00,,,0.35,0.000000,,2013-01-16 14:22:00,
2013-01-16 04:32:00,67.0,59.0,-100.00,North,350,0.0,4.0,76,0.00,,,0.35,0.000000,,2013-01-16 14:32:00,
2013-01-16 04:42:00,67.0,59.0,-100.00,North,350,0.0,4.0,76,0.00,,,0.35,0.000000,,2013-01-16 14:42:00,
2013-01-16 05:03:00,69.0,61.0,-100.00,NNW,348,6.0,6.0,75,0.00,,,0.35,0.000000,,2013-01-16 15:03:00,
2013-01-16 05:12:00,69.0,61.0,-100.00,NNW,348,6.0,6.0,75,0.00,,,0.35,0.000000,,2013-01-16 15:12:00,
2013-01-16 05:22:00,69.0,61.0,-100.00,NNW,348,6.0,6.0,75,0.00,,,0.35,0.000000,,2013-01-16 15:22:00,
2013-01-16 05:32:00,69.0,61.0,-100.00,NNW,348,6.0,6.0,75,0.00,,,0.35,0.000000,,2013-01-16 15:32:00,
2013-01-16 05:42:00,69.0,61.0,-100.00,NNW,348,6.0,6.0,75,0.00,,,0.35,0.000000,,2013-01-16 15:42:00,
2013-01-16 06:12:00,70.0,63.0,-100.00,NE,46,6.0,8.0,78,0.00,,,0.35,0.000000,,2013-01-16 16:12:00,
2013-01-16 06:22:00,70.0,63.0,-100.00,NE,46,6.0,8.0,78,0.00,,,0.35,0.000000,,2013-01-16 16:22:00,
2013-01-16 06:32:00,70.0,63.0,-100.00,NE,46,6.0,8.0,78,0.00,,,0.35,0.000000,,2013-01-16 16:32:00,
2013-01-16 06:42:00,70.0,63.0,-100.00,NE,46,6.0,8.0,78,0.00,,,0.35,0.000000,,2013-01-16 16:42:00,
2013-01-16 07:02:00,68.0,60.0,-100.00,NW,313,5.0,9.0,76,0.00,,,0.35,0.000000,,2013-01-16 17:02:00,
2013-01-16 07:12:00,68.0,60.0,-100.00,NW,313,5.0,9.0,76,0.00,,,0.35,0.000000,,2013-01-16 17:12:00,
2013-01-16 07:22:00,68.0,60.0,-100.00,NW,313,5.0,9.0,76,0.00,,,0.35,0.000000,,2013-01-16 17:22:00,
2013-01-16 07:33:00,68.0,60.0,-100.00,NW,313,5.0,9.0,76,0.00,,,0.35,0.000000,,2013-01-16 17:33:00,
2013-01-16 07:43:00,68.0,60.0,-100.00,NW,313,5.0,9.0,76,0.00,,,0.35,0.000000,,2013-01-16 17:43:00,
2013-01-16 08:02:00,70.0,62.0,-100.00,North,353,0.0,9.0,77,0.00,,,0.35,38.000000,,2013-01-16 18:02:00,
2013-01-16 08:12:00,70.0,62.0,-100.00,North,353,0.0,9.0,77,0.00,,,0.35,38.000000,,2013-01-16 18:12:00,
2013-01-16 08:22:00,70.0,62.0,-100.00,North,353,0.0,9.0,77,0.00,,,0.35,38.000000,,2013-01-16 18:22:00,
2013-01-16 08:33:00,70.0,62.0,-100.00,North,353,0.0,9.0,77,0.00,,,0.35,38.000000,,2013-01-16 18:33:00,
2013-01-16 08:42:00,70.0,62.0,-100.00,North,353,0.0,9.0,77,0.00,,,0.35,38.000000,,2013-01-16 18:42:00,
2013-01-16 09:03:00,79.0,65.0,-100.00,SE,139,2.0,2.0,63,0.00,,,0.35,262.000000,,2013-01-16 19:03:00,
2013-01-16 09:12:00,79.0,65.0,-100.00,SE,139,2.0,2.0,63,0.00,,,0.35,262.000000,,2013-01-16 19:12:00,
2013-01-16 09:22:00,79.0,65.0,-100.00,SE,139,2.0,2.0,63,0.00,,,0.35,262.000000,,2013-01-16 19:22:00,
2013-01-16 09:33:00,79.0,65.0,-100.00,SE,139,2.0,2.0,63,0.00,,,0.35,262.000000,,2013-01-16 19:33:00,
2013-01-16 09:42:00,79.0,65.0,-100.00,SE,139,2.0,2.0,63,0.00,,,0.35,262.000000,,2013-01-16 19:42:00,
2013-01-16 10:03:00,80.0,66.0,-100.00,ESE,115,6.0,7.0,63,0.00,,,0.35,508.000000,,2013-01-16 20:03:00,
2013-01-16 10:12:00,80.0,66.0,-100.00,ESE,115,6.0,7.0,63,0.00,,,0.35,508.000000,,2013-01-16 20:12:00,
2013-01-16 10:23:00,80.0,66.0,-100.00,ESE,115,6.0,7.0,63,0.00,,,0.35,508.000000,,2013-01-16 20:23:00,
2013-01-16 10:33:00,80.0,66.0,-100.00,ESE,115,6.0,7.0,63,0.00,,,0.35,508.000000,,2013-01-16 20:33:00,
2013-01-16 10:42:00,80.0,66.0,-100.00,ESE,115,6.0,7.0,63,0.00,,,0.35,508.000000,,2013-01-16 20:42:00,
2013-01-16 11:02:00,81.0,66.0,-100.00,ESE,112,7.0,9.0,61,0.00,,,0.35,711.000000,,2013-01-16 21:02:00,
2013-01-16 11:12:00,81.0,66.0,-100.00,ESE,112,7.0,9.0,61,0.00,,,0.35,711.000000,,2013-01-16 21:12:00,
2013-01-16 11:22:00,81.0,66.0,-100.00,ESE,112,7.0,9.0,61,0.00,,,0.35,711.000000,,2013-01-16 21:22:00,
2013-01-16 11:32:00,81.0,66.0,-100.00,ESE,112,7.0,9.0,61,0.00,,,0.35,711.000000,,2013-01-16 21:32:00,
2013-01-16 11:42:00,81.0,66.0,-100.00,ESE,112,7.0,9.0,61,0.00,,,0.35,711.000000,,2013-01-16 21:42:00,
2013-01-16 12:02:00,80.0,65.0,-100.00,East,100,8.0,11.0,61,0.00,,,0.35,850.000000,,2013-01-16 22:02:00,
2013-01-16 12:12:00,80.0,65.0,-100.00,East,100,8.0,11.0,61,0.00,,,0.35,850.000000,,2013-01-16 22:12:00,
2013-01-16 12:22:00,80.0,65.0,-100.00,East,100,8.0,11.0,61,0.00,,,0.35,850.000000,,2013-01-16 22:22:00,
2013-01-16 12:32:00,80.0,65.0,-100.00,East,100,8.0,11.0,61,0.00,,,0.35,850.000000,,2013-01-16 22:32:00,
2013-01-16 12:42:00,80.0,65.0,-100.00,East,100,8.0,11.0,61,0.00,,,0.35,850.000000,,2013-01-16 22:42:00,
2013-01-16 13:02:00,80.0,66.0,-100.00,East,93,9.0,14.0,63,0.00,,,0.35,913.000000,,2013-01-16 23:02:00,
2013-01-16 13:12:00,80.0,66.0,-100.00,East,93,9.0,14.0,63,0.00,,,0.35,913.000000,,2013-01-16 23:12:00,
2013-01-16 13:22:00,80.0,66.0,-100.00,East,93,9.0,14.0,63,0.00,,,0.35,913.000000,,2013-01-16 23:22:00,
2013-01-16 13:32:00,80.0,66.0,-100.00,East,93,9.0,14.0,63,0.00,,,0.35,913.000000,,2013-01-16 23:32:00,
2013-01-16 13:42:00,80.0,66.0,-100.00,East,93,9.0,14.0,63,0.00,,,0.35,913.000000,,2013-01-16 23:42:00,
2013-01-16 14:12:00,79.0,65.0,-100.00,East,96,8.0,14.0,63,0.00,,,0.35,710.000000,,2013-01-17 00:12:00,
2013-01-16 14:22:00,79.0,65.0,-100.00,East,96,8.0,14.0,63,0.00,,,0.35,710.000000,,2013-01-17 00:22:00,
2013-01-16 14:32:00,79.0,65.0,-100.00,East,96,8.0,14.0,63,0.00,,,0.35,710.000000,,2013-01-17 00:32:00,
2013-01-16 14:42:00,79.0,65.0,-100.00,East,96,8.0,14.0,63,0.00,,,0.35,710.000000,,2013-01-17 00:42:00,
2013-01-16 15:02:00,78.0,62.0,-100.00,NNE,18,7.0,14.0,59,0.00,,,0.35,384.000000,,2013-01-17 01:02:00,
2013-01-16 15:12:00,78.0,62.0,-100.00,NNE,18,7.0,14.0,59,0.00,,,0.35,384.000000,,2013-01-17 01:12:00,
2013-01-16 15:22:00,78.0,62.0,-100.00,NNE,18,7.0,14.0,59,0.00,,,0.35,384.000000,,2013-01-17 01:22:00,
2013-01-16 15:32:00,78.0,62.0,-100.00,NNE,18,7.0,14.0,59,0.00,,,0.35,384.000000,,2013-01-17 01:32:00,
2013-01-16 15:42:00,78.0,62.0,-100.00,NNE,18,7.0,14.0,59,0.00,,,0.35,384.000000,,2013-01-17 01:42:00,
2013-01-16 16:02:00,76.0,61.0,-100.00,North,353,9.0,13.0,59,0.00,,,0.33,73.000000,,2013-01-17 02:02:00,
2013-01-16 16:12:00,76.0,61.0,-100.00,North,353,9.0,13.0,59,0.00,,,0.33,73.000000,,2013-01-17 02:12:00,
2013-01-16 16:22:00,76.0,61.0,-100.00,North,353,9.0,13.0,59,0.00,,,0.33,73.000000,,2013-01-17 02:22:00,
2013-01-16 16:32:00,76.0,61.0,-100.00,North,353,9.0,13.0,59,0.00,,,0.33,73.000000,,2013-01-17 02:32:00,
2013-01-16 16:42:00,76.0,61.0,-100.00,North,353,9.0,13.0,59,0.00,,,0.33,73.000000,,2013-01-17 02:42:00,
2013-01-16 17:02:00,77.0,63.0,-100.00,East,91,8.0,12.0,63,0.00,,,0.30,61.000000,,2013-01-17 03:02:00,
2013-01-16 17:12:00,77.0,63.0,-100.00,East,91,8.0,12.0,63,0.00,,,0.30,61.000000,,2013-01-17 03:12:00,
2013-01-16 17:22:00,77.0,63.0,-100.00,East,91,8.0,12.0,63,0.00,,,0.30,61.000000,,2013-01-17 03:22:00,
2013-01-16 17:32:00,77.0,63.0,-100.00,East,91,8.0,12.0,63,0.00,,,0.30,61.000000,,2013-01-17 03:32:00,
2013-01-16 17:42:00,77.0,63.0,-100.00,East,91,8.0,12.0,63,0.00,,,0.30,61.000000,,2013-01-17 03:42:00,
2013-01-16 18:12:00,74.0,61.0,-100.00,East,84,9.0,14.0,65,0.00,,,0.29,35.000000,,2013-01-17 04:12:00,
2013-01-16 18:22:00,74.0,61.0,-100.00,East,84,9.0,14.0,65,0.00,,,0.29,35.000000,,2013-01-17 04:22:00,
2013-01-16 18:32:00,74.0,61.0,-100.00,East,84,9.0,14.0,65,0.00,,,0.29,35.000000,,2013-01-17 04:32:00,
2013-01-16 18:42:00,74.0,61.0,-100.00,East,84,9.0,14.0,65,0.00,,,0.29,35.000000,,2013-01-17 04:42:00,
2013-01-16 19:04:00,75.0,64.0,-100.00,East,83,7.0,13.0,69,0.00,,,0.28,1.000000,,2013-01-17 05:04:00,
2013-01-16 19:12:00,75.0,64.0,-100.00,East,83,7.0,13.0,69,0.00,,,0.28,1.000000,,2013-01-17 05:12:00,
2013-01-16 19:22:00,75.0,64.0,-100.00,East,83,7.0,13.0,69,0.00,,,0.28,1.000000,,2013-01-17 05:22:00,
2013-01-16 19:32:00,75.0,64.0,-100.00,East,83,7.0,13.0,69,0.00,,,0.28,1.000000,,2013-01-17 05:32:00,
2013-01-16 19:42:00,75.0,64.0,-100.00,East,83,7.0,13.0,69,0.00,,,0.28,1.000000,,2013-01-17 05:42:00,
2013-01-16 20:02:00,73.0,62.0,-100.00,East,80,8.0,11.0,68,0.00,,,-99.99,0.000000,,2013-01-17 06:02:00,
2013-01-16 20:12:00,73.0,62.0,-100.00,East,80,8.0,11.0,68,0.00,,,-99.99,0.000000,,2013-01-17 06:12:00,
2013-01-16 20:22:00,73.0,62.0,-100.00,East,80,8.0,11.0,68,0.00,,,-99.99,0.000000,,2013-01-17 06:22:00,
2013-01-16 20:32:00,73.0,62.0,-100.00,East,80,8.0,11.0,68,0.00,,,-99.99,0.000000,,2013-01-17 06:32:00,
2013-01-16 20:42:00,73.0,62.0,-100.00,East,80,8.0,11.0,68,0.00,,,-99.99,0.000000,,2013-01-17 06:42:00,
2013-01-16 21:02:00,73.0,60.0,-100.00,ENE,70,3.0,11.0,64,0.00,,,0.06,0.000000,,2013-01-17 07:02:00,
2013-01-16 21:12:00,73.0,60.0,-100.00,ENE,70,3.0,11.0,64,0.00,,,0.06,0.000000,,2013-01-17 07:12:00,
2013-01-16 21:22:00,73.0,60.0,-100.00,ENE,70,3.0,11.0,64,0.00,,,0.06,0.000000,,2013-01-17 07:22:00,
2013-01-16 21:32:00,73.0,60.0,-100.00,ENE,70,3.0,11.0,64,0.00,,,0.06,0.000000,,2013-01-17 07:32:00,
2013-01-16 21:42:00,73.0,60.0,-100.00,ENE,70,3.0,11.0,64,0.00,,,0.06,0.000000,,2013-01-17 07:42:00,
2013-01-16 22:02:00,73.0,60.0,-100.00,North,359,8.0,10.0,63,0.00,,,0.06,0.000000,,2013-01-17 08:02:00,
2013-01-16 22:12:00,73.0,60.0,-100.00,North,359,8.0,10.0,63,0.00,,,0.06,0.000000,,2013-01-17 08:12:00,
2013-01-16 22:22:00,73.0,60.0,-100.00,North,359,8.0,10.0,63,0.00,,,0.06,0.000000,,2013-01-17 08:22:00,
2013-01-16 22:32:00,73.0,60.0,-100.00,North,359,8.0,10.0,63,0.00,,,0.06,0.000000,,2013-01-17 08:32:00,
2013-01-16 22:42:00,73.0,60.0,-100.00,North,359,8.0,10.0,63,0.00,,,0.06,0.000000,,2013-01-17 08:42:00,
2013-01-16 23:02:00,73.0,59.0,-100.00,North,4,5.0,12.0,62,0.00,,,0.06,0.000000,,2013-01-17 09:02:00,
2013-01-16 23:12:00,73.0,59.0,-100.00,North,4,5.0,12.0,62,0.00,,,0.06,0.000000,,2013-01-17 09:12:00,
2013-01-16 23:22:00,73.0,59.0,-100.00,North,4,5.0,12.0,62,0.00,,,0.06,0.000000,,2013-01-17 09:22:00,
2013-01-16 23:32:00,73.0,59.0,-100.00,North,4,5.0,12.0,62,0.00,,,0.06,0.000000,,2013-01-17 09:32:00,
2013-01-16 23:42:00,73.0,59.0,-100.00,North,4,5.0,12.0,62,0.00,,,0.06,0.000000,,2013-01-17 09:42:00,